createdAt,value
2023-03-30T00:00:51.120Z,95070.00
2023-03-30T00:01:51.152Z,95064.00
2023-03-30T00:02:51.301Z,95068.00
2023-03-30T00:03:51.383Z,95066.00
2023-03-30T00:04:51.355Z,95066.00
2023-03-30T00:05:51.331Z,95062.00
2023-03-30T00:06:51.361Z,95058.00
2023-03-30T00:07:51.402Z,95058.00
2023-03-30T00:08:51.446Z,95058.00
2023-03-30T00:09:51.442Z,95060.00
2023-03-30T00:10:51.504Z,95058.00
2023-03-30T00:11:51.529Z,95056.00
2023-03-30T00:12:51.532Z,95052.00
2023-03-30T00:13:51.593Z,95056.00
2023-03-30T00:14:51.582Z,95058.00
2023-03-30T00:15:51.619Z,95060.00
2023-03-30T00:16:51.687Z,95058.00
2023-03-30T00:17:51.791Z,95056.00
2023-03-30T00:18:51.713Z,95058.00
2023-03-30T00:19:51.770Z,95054.00
2023-03-30T00:20:51.784Z,95054.00
2023-03-30T00:21:51.773Z,95054.00
2023-03-30T00:22:51.879Z,95054.00
2023-03-30T00:23:51.886Z,95054.00
2023-03-30T00:24:51.943Z,95054.00
2023-03-30T00:25:51.943Z,95056.00
2023-03-30T00:26:51.982Z,95060.00
2023-03-30T00:27:51.982Z,95064.00
2023-03-30T00:28:52.069Z,95062.00
2023-03-30T00:29:52.019Z,95066.00
2023-03-30T00:30:52.091Z,95052.00
2023-03-30T00:31:52.142Z,95046.00
2023-03-30T00:32:52.162Z,95042.00
2023-03-30T00:33:52.172Z,95035.00
2023-03-30T00:34:52.173Z,95036.00
2023-03-30T00:35:52.248Z,95035.00
2023-03-30T00:36:52.249Z,95038.00
2023-03-30T00:37:52.344Z,95038.00
2023-03-30T00:38:52.343Z,95036.00
2023-03-30T00:39:52.364Z,95038.00
2023-03-30T00:40:52.415Z,95033.00
2023-03-30T00:41:52.429Z,95027.00
2023-03-30T00:42:52.413Z,95029.00
2023-03-30T00:43:52.448Z,95033.00
2023-03-30T00:44:52.530Z,95027.00
2023-03-30T00:45:52.581Z,95029.00
2023-03-30T00:46:52.601Z,95027.00
2023-03-30T00:47:52.690Z,95025.00
2023-03-30T00:48:52.628Z,95019.00
2023-03-30T00:49:52.652Z,95015.00
2023-03-30T00:50:52.681Z,95019.00
2023-03-30T00:51:52.731Z,95015.00
2023-03-30T00:52:52.766Z,95015.00
2023-03-30T00:53:52.789Z,95011.00
2023-03-30T00:54:52.854Z,95011.00
2023-03-30T00:55:52.850Z,95013.00
2023-03-30T00:56:52.931Z,95015.00
2023-03-30T00:57:52.896Z,95021.00
2023-03-30T00:58:52.916Z,95017.00
2023-03-30T00:59:52.961Z,95015.00
2023-03-30T01:00:53.018Z,95015.00
2023-03-30T01:01:53.139Z,95013.00
2023-03-30T01:02:53.202Z,95013.00
2023-03-30T01:03:53.157Z,95013.00
2023-03-30T01:04:53.185Z,95013.00
2023-03-30T01:05:53.132Z,95011.00
2023-03-30T01:06:53.185Z,95013.00
2023-03-30T01:07:53.206Z,95009.00
2023-03-30T01:08:53.338Z,95013.00
2023-03-30T01:09:53.329Z,95011.00
2023-03-30T01:10:53.302Z,95005.00
2023-03-30T01:11:53.332Z,95005.00
2023-03-30T01:12:53.378Z,95005.00
2023-03-30T01:13:53.372Z,95005.00
2023-03-30T01:14:53.424Z,95005.00
2023-03-30T01:15:53.463Z,95007.00
2023-03-30T01:16:53.497Z,95007.00
2023-03-30T01:17:53.522Z,95005.00
2023-03-30T01:18:53.617Z,95007.00
2023-03-30T01:19:53.575Z,95005.00
2023-03-30T01:20:53.634Z,95005.00
2023-03-30T01:21:53.679Z,95003.00
2023-03-30T01:22:53.730Z,95003.00
2023-03-30T01:23:53.748Z,95003.00
2023-03-30T01:24:53.830Z,95001.00
2023-03-30T01:25:53.819Z,94997.00
2023-03-30T01:26:53.829Z,94997.00
2023-03-30T01:27:53.879Z,94999.00
2023-03-30T01:28:53.917Z,95001.00
2023-03-30T01:29:53.960Z,95003.00
2023-03-30T01:30:54.015Z,94999.00
2023-03-30T01:31:54.051Z,95003.00
2023-03-30T01:32:54.095Z,95003.00
2023-03-30T01:33:54.087Z,95001.00
2023-03-30T01:34:54.113Z,95003.00
2023-03-30T01:35:54.245Z,95007.00
2023-03-30T01:36:54.188Z,95007.00
2023-03-30T01:37:54.211Z,95003.00
2023-03-30T01:38:54.251Z,95003.00
2023-03-30T01:39:54.245Z,95005.00
2023-03-30T01:40:54.288Z,95007.00
2023-03-30T01:41:54.297Z,95007.00
2023-03-30T01:42:54.344Z,95007.00
2023-03-30T01:43:54.384Z,95011.00
2023-03-30T01:44:54.428Z,95013.00
2023-03-30T01:45:54.461Z,95015.00
2023-03-30T01:46:54.535Z,95011.00
2023-03-30T01:47:54.643Z,95021.00
2023-03-30T01:48:54.564Z,95019.00
2023-03-30T01:49:54.583Z,95021.00
2023-03-30T01:50:54.604Z,95017.00
2023-03-30T01:51:54.667Z,95011.00
2023-03-30T01:52:54.680Z,95017.00
2023-03-30T01:53:54.704Z,95015.00
2023-03-30T01:54:54.757Z,95017.00
2023-03-30T01:55:54.780Z,95017.00
2023-03-30T01:56:54.801Z,95021.00
2023-03-30T01:57:54.819Z,95025.00
2023-03-30T01:58:54.888Z,95017.00
2023-03-30T01:59:54.891Z,95017.00
2023-03-30T02:00:54.905Z,95015.00
2023-03-30T02:01:54.964Z,95011.00
2023-03-30T02:02:55.021Z,95007.00
2023-03-30T02:03:55.073Z,95005.00
2023-03-30T02:04:55.026Z,95007.00
2023-03-30T02:05:55.019Z,95007.00
2023-03-30T02:06:55.060Z,95013.00
2023-03-30T02:07:55.090Z,95017.00
2023-03-30T02:08:55.152Z,95017.00
2023-03-30T02:09:55.210Z,95017.00
2023-03-30T02:10:55.224Z,95015.00
2023-03-30T02:11:55.246Z,95019.00
2023-03-30T02:12:55.294Z,95019.00
2023-03-30T02:13:55.316Z,95017.00
2023-03-30T02:14:55.395Z,95015.00
2023-03-30T02:15:55.457Z,95009.00
2023-03-30T02:16:55.506Z,95011.00
2023-03-30T02:17:55.469Z,95007.00
2023-03-30T02:18:55.545Z,95007.00
2023-03-30T02:19:55.538Z,95005.00
2023-03-30T02:20:55.559Z,95011.00
2023-03-30T02:21:55.591Z,95007.00
2023-03-30T02:22:55.643Z,95007.00
2023-03-30T02:23:55.680Z,95003.00
2023-03-30T02:24:55.675Z,94997.00
2023-03-30T02:25:55.695Z,94999.00
2023-03-30T02:26:55.767Z,94993.00
2023-03-30T02:27:55.778Z,94989.00
2023-03-30T02:28:55.809Z,94995.00
2023-03-30T02:29:55.827Z,94991.00
2023-03-30T02:30:55.863Z,94989.00
2023-03-30T02:31:55.955Z,94985.00
2023-03-30T02:32:55.992Z,94989.00
2023-03-30T02:33:55.998Z,94989.00
2023-03-30T02:34:55.985Z,94989.00
2023-03-30T02:35:56.047Z,94985.00
2023-03-30T02:36:56.076Z,94987.00
2023-03-30T02:37:56.087Z,94987.00
2023-03-30T02:38:56.148Z,94987.00
2023-03-30T02:39:56.159Z,94982.00
2023-03-30T02:40:56.168Z,94982.00
2023-03-30T02:41:56.194Z,94978.00
2023-03-30T02:42:56.236Z,94978.00
2023-03-30T02:43:56.296Z,94980.00
2023-03-30T02:44:56.284Z,94980.00
2023-03-30T02:45:56.369Z,94976.00
2023-03-30T02:46:56.434Z,94978.00
2023-03-30T02:47:56.445Z,94976.00
2023-03-30T02:48:56.410Z,94980.00
2023-03-30T02:49:56.445Z,94982.00
2023-03-30T02:50:56.459Z,94982.00
2023-03-30T02:51:56.501Z,94982.00
2023-03-30T02:52:56.555Z,94982.00
2023-03-30T02:53:56.563Z,94978.00
2023-03-30T02:54:56.575Z,94978.00
2023-03-30T02:55:56.619Z,94978.00
2023-03-30T02:56:56.688Z,94982.00
2023-03-30T02:57:56.660Z,94982.00
2023-03-30T02:58:56.710Z,94984.00
2023-03-30T02:59:56.719Z,94982.00
2023-03-30T03:00:59.251Z,94980.00
2023-03-30T03:01:56.781Z,94980.00
2023-03-30T03:02:56.805Z,94976.00
2023-03-30T03:03:56.727Z,94976.00
2023-03-30T03:04:56.772Z,94974.00
2023-03-30T03:05:56.760Z,94972.00
2023-03-30T03:06:56.736Z,94970.00
2023-03-30T03:07:56.686Z,94968.00
2023-03-30T03:08:56.701Z,94966.00
2023-03-30T03:09:56.732Z,94964.00
2023-03-30T03:10:56.691Z,94966.00
2023-03-30T03:11:56.694Z,94966.00
2023-03-30T03:12:56.683Z,94966.00
2023-03-30T03:13:56.701Z,94966.00
2023-03-30T03:14:56.683Z,94966.00
2023-03-30T03:15:56.684Z,94964.00
2023-03-30T03:16:56.727Z,94964.00
2023-03-30T03:17:56.696Z,94966.00
2023-03-30T03:18:56.640Z,94958.00
2023-03-30T03:19:56.644Z,94960.00
2023-03-30T03:20:56.639Z,94958.00
2023-03-30T03:21:56.612Z,94956.00
2023-03-30T03:22:56.616Z,94950.00
2023-03-30T03:23:56.585Z,94950.00
2023-03-30T03:24:56.580Z,94954.00
2023-03-30T03:25:56.595Z,94950.00
2023-03-30T03:26:56.579Z,94950.00
2023-03-30T03:27:56.575Z,94946.00
2023-03-30T03:28:56.560Z,94946.00
2023-03-30T03:29:56.577Z,94944.00
2023-03-30T03:30:56.605Z,94942.00
2023-03-30T03:31:56.576Z,94938.00
2023-03-30T03:32:56.609Z,94936.00
2023-03-30T03:33:56.512Z,94934.00
2023-03-30T03:34:56.551Z,94936.00
2023-03-30T03:35:56.544Z,94936.00
2023-03-30T03:36:56.530Z,94934.00
2023-03-30T03:37:56.520Z,94933.00
2023-03-30T03:38:56.526Z,94933.00
2023-03-30T03:39:56.524Z,94931.00
2023-03-30T03:40:56.533Z,94929.00
2023-03-30T03:41:56.497Z,94931.00
2023-03-30T03:42:56.494Z,94933.00
2023-03-30T03:43:56.468Z,94929.00
2023-03-30T03:44:56.499Z,94929.00
2023-03-30T03:45:56.462Z,94929.00
2023-03-30T03:46:56.522Z,94927.00
2023-03-30T03:47:56.509Z,94925.00
2023-03-30T03:48:56.447Z,94925.00
2023-03-30T03:49:56.456Z,94921.00
2023-03-30T03:50:56.414Z,94919.00
2023-03-30T03:51:56.419Z,94915.00
2023-03-30T03:52:56.446Z,94913.00
2023-03-30T03:53:56.406Z,94905.00
2023-03-30T03:54:56.432Z,94903.00
2023-03-30T03:55:56.397Z,94903.00
2023-03-30T03:56:56.445Z,94899.00
2023-03-30T03:57:56.432Z,94897.00
2023-03-30T03:58:56.377Z,94895.00
2023-03-30T03:59:56.437Z,94895.00
2023-03-30T04:00:56.460Z,94893.00
2023-03-30T04:01:56.416Z,94891.00
2023-03-30T04:02:56.382Z,94880.00
2023-03-30T04:03:56.374Z,94880.00
2023-03-30T04:04:56.386Z,94887.00
2023-03-30T04:05:56.371Z,94891.00
2023-03-30T04:06:56.422Z,94895.00
2023-03-30T04:07:56.488Z,94893.00
2023-03-30T04:08:56.498Z,94897.00
2023-03-30T04:09:56.512Z,94895.00
2023-03-30T04:10:56.559Z,94893.00
2023-03-30T04:11:56.544Z,94893.00
2023-03-30T04:12:56.580Z,94893.00
2023-03-30T04:13:56.631Z,94893.00
2023-03-30T04:14:56.647Z,94893.00
2023-03-30T04:15:56.758Z,94891.00
2023-03-30T04:16:57.713Z,94891.00
2023-03-30T04:17:56.799Z,94889.00
2023-03-30T04:18:56.793Z,94887.00
2023-03-30T04:19:56.858Z,94878.00
2023-03-30T04:20:56.834Z,94874.00
2023-03-30T04:21:56.884Z,94876.00
2023-03-30T04:22:56.896Z,94878.00
2023-03-30T04:23:56.947Z,94880.00
2023-03-30T04:24:56.947Z,94887.00
2023-03-30T04:25:57.014Z,94876.00
2023-03-30T04:26:56.988Z,94874.00
2023-03-30T04:27:57.190Z,94874.00
2023-03-30T04:28:57.078Z,94872.00
2023-03-30T04:29:57.099Z,94872.00
2023-03-30T04:30:57.085Z,94872.00
2023-03-30T04:31:57.198Z,94866.00
2023-03-30T04:32:57.227Z,94866.00
2023-03-30T04:33:57.184Z,94862.00
2023-03-30T04:34:57.258Z,94860.00
2023-03-30T04:35:57.279Z,94860.00
2023-03-30T04:36:57.334Z,94862.00
2023-03-30T04:37:57.351Z,94862.00
2023-03-30T04:38:57.376Z,94866.00
2023-03-30T04:39:57.406Z,94866.00
2023-03-30T04:40:57.406Z,94868.00
2023-03-30T04:41:57.453Z,94868.00
2023-03-30T04:42:57.467Z,94870.00
2023-03-30T04:43:57.512Z,94870.00
2023-03-30T04:44:57.536Z,94870.00
2023-03-30T04:45:57.653Z,94868.00
2023-03-30T04:46:57.605Z,94874.00
2023-03-30T04:47:57.729Z,94874.00
2023-03-30T04:48:57.672Z,94880.00
2023-03-30T04:49:57.717Z,94880.00
2023-03-30T04:50:57.750Z,94880.00
2023-03-30T04:51:57.744Z,94880.00
2023-03-30T04:52:57.791Z,94880.00
2023-03-30T04:53:57.838Z,94876.00
2023-03-30T04:54:57.839Z,94887.00
2023-03-30T04:55:57.919Z,94878.00
2023-03-30T04:56:57.917Z,94880.00
2023-03-30T04:57:57.938Z,94887.00
2023-03-30T04:58:57.976Z,94880.00
2023-03-30T04:59:57.990Z,94880.00
2023-03-30T05:00:58.032Z,94878.00
2023-03-30T05:01:58.210Z,94878.00
2023-03-30T05:02:58.193Z,94876.00
2023-03-30T05:03:58.108Z,94876.00
2023-03-30T05:04:58.165Z,94880.00
2023-03-30T05:05:58.179Z,94876.00
2023-03-30T05:06:58.212Z,94878.00
2023-03-30T05:07:58.231Z,94878.00
2023-03-30T05:08:58.272Z,94876.00
2023-03-30T05:09:58.309Z,94870.00
2023-03-30T05:10:58.337Z,94876.00
2023-03-30T05:11:58.425Z,94878.00
2023-03-30T05:12:58.427Z,94874.00
2023-03-30T05:13:58.466Z,94876.00
2023-03-30T05:14:58.490Z,94878.00
2023-03-30T05:15:58.508Z,94876.00
2023-03-30T05:16:58.622Z,94880.00
2023-03-30T05:17:59.274Z,94876.00
2023-03-30T05:18:58.625Z,94878.00
2023-03-30T05:19:58.620Z,94880.00
2023-03-30T05:20:58.726Z,94878.00
2023-03-30T05:21:58.713Z,94876.00
2023-03-30T05:22:58.765Z,94887.00
2023-03-30T05:23:58.765Z,94889.00
2023-03-30T05:24:58.805Z,94891.00
2023-03-30T05:25:58.867Z,94880.00
2023-03-30T05:26:58.869Z,94887.00
2023-03-30T05:27:58.927Z,94893.00
2023-03-30T05:28:58.927Z,94893.00
2023-03-30T05:29:58.985Z,94889.00
2023-03-30T05:30:59.064Z,94889.00
2023-03-30T05:31:59.026Z,94889.00
2023-03-30T05:32:59.117Z,94895.00
2023-03-30T05:33:59.132Z,94889.00
2023-03-30T05:34:59.144Z,94895.00
2023-03-30T05:35:59.272Z,94899.00
2023-03-30T05:36:59.188Z,94903.00
2023-03-30T05:37:59.201Z,94909.00
2023-03-30T05:38:59.199Z,94909.00
2023-03-30T05:39:59.254Z,94913.00
2023-03-30T05:40:59.239Z,94913.00
2023-03-30T05:41:59.285Z,94917.00
2023-03-30T05:42:59.286Z,94917.00
2023-03-30T05:43:59.374Z,94913.00
2023-03-30T05:44:59.365Z,94915.00
2023-03-30T05:45:59.468Z,94917.00
2023-03-30T05:46:59.502Z,94919.00
2023-03-30T05:47:59.627Z,94917.00
2023-03-30T05:48:59.562Z,94915.00
2023-03-30T05:49:59.604Z,94913.00
2023-03-30T05:51:02.208Z,94913.00
2023-03-30T05:51:59.621Z,94917.00
2023-03-30T05:52:59.634Z,94917.00
2023-03-30T05:53:59.602Z,94911.00
2023-03-30T05:54:59.607Z,94913.00
2023-03-30T05:55:59.609Z,94913.00
2023-03-30T05:56:59.668Z,94913.00
2023-03-30T05:57:59.581Z,94915.00
2023-03-30T05:58:59.589Z,94917.00
2023-03-30T05:59:59.576Z,94921.00
2023-03-30T06:00:59.602Z,94925.00
2023-03-30T06:01:59.579Z,94925.00
2023-03-30T06:02:59.687Z,94927.00
2023-03-30T06:03:59.629Z,94927.00
2023-03-30T06:04:59.604Z,94931.00
2023-03-30T06:05:59.519Z,94933.00
2023-03-30T06:06:59.535Z,94936.00
2023-03-30T06:07:59.520Z,94933.00
2023-03-30T06:08:59.559Z,94938.00
2023-03-30T06:09:59.548Z,94936.00
2023-03-30T06:10:59.531Z,94934.00
2023-03-30T06:11:59.513Z,94934.00
2023-03-30T06:12:59.512Z,94936.00
2023-03-30T06:13:59.513Z,94934.00
2023-03-30T06:14:59.525Z,94934.00
2023-03-30T06:16:01.475Z,94934.00
2023-03-30T06:16:59.491Z,94933.00
2023-03-30T06:17:59.541Z,94934.00
2023-03-30T06:18:59.464Z,94938.00
2023-03-30T06:19:59.491Z,94936.00
2023-03-30T06:20:59.451Z,94934.00
2023-03-30T06:21:59.448Z,94929.00
2023-03-30T06:22:59.419Z,94921.00
2023-03-30T06:23:59.446Z,94913.00
2023-03-30T06:24:59.410Z,94915.00
2023-03-30T06:25:59.401Z,94911.00
2023-03-30T06:26:59.427Z,94909.00
2023-03-30T06:27:59.383Z,94907.00
2023-03-30T06:28:59.398Z,94907.00
2023-03-30T06:29:59.408Z,94901.00
2023-03-30T06:30:59.379Z,94901.00
2023-03-30T06:31:59.416Z,94897.00
2023-03-30T06:32:59.456Z,94899.00
2023-03-30T06:33:59.359Z,94899.00
2023-03-30T06:34:59.351Z,94897.00
2023-03-30T06:35:59.373Z,94895.00
2023-03-30T06:36:59.351Z,94891.00
2023-03-30T06:37:59.321Z,94889.00
2023-03-30T06:38:59.294Z,94880.00
2023-03-30T06:39:59.365Z,94887.00
2023-03-30T06:40:59.326Z,94887.00
2023-03-30T06:41:59.437Z,94887.00
2023-03-30T06:42:59.314Z,94878.00
2023-03-30T06:43:59.294Z,94878.00
2023-03-30T06:44:59.296Z,94872.00
2023-03-30T06:45:59.354Z,94868.00
2023-03-30T06:46:59.310Z,94866.00
2023-03-30T06:47:59.353Z,94868.00
2023-03-30T06:48:59.252Z,94868.00
2023-03-30T06:49:59.259Z,94868.00
2023-03-30T06:50:59.314Z,94866.00
2023-03-30T06:52:02.158Z,94860.00
2023-03-30T06:53:00.260Z,94858.00
2023-03-30T06:53:59.242Z,94854.00
2023-03-30T06:54:59.222Z,94852.00
2023-03-30T06:55:59.324Z,94852.00
2023-03-30T06:56:59.234Z,94854.00
2023-03-30T06:57:59.202Z,94854.00
2023-03-30T06:58:59.226Z,94852.00
2023-03-30T06:59:59.208Z,94852.00
2023-03-30T07:00:59.239Z,94852.00
2023-03-30T07:01:59.185Z,94848.00
2023-03-30T07:02:59.182Z,94852.00
2023-03-30T07:03:59.269Z,94850.00
2023-03-30T07:04:59.186Z,94854.00
2023-03-30T07:05:59.422Z,94854.00
2023-03-30T07:06:59.231Z,94852.00
2023-03-30T07:07:59.287Z,94848.00
2023-03-30T07:08:59.337Z,94848.00
2023-03-30T07:09:59.390Z,94848.00
2023-03-30T07:10:59.457Z,94852.00
2023-03-30T07:11:59.498Z,94852.00
2023-03-30T07:12:59.570Z,94850.00
2023-03-30T07:13:59.579Z,94852.00
2023-03-30T07:14:59.612Z,94848.00
2023-03-30T07:15:59.611Z,94848.00
2023-03-30T07:16:59.692Z,94842.00
2023-03-30T07:17:59.713Z,94844.00
2023-03-30T07:18:59.669Z,94846.00
2023-03-30T07:19:59.756Z,94842.00
2023-03-30T07:20:59.788Z,94844.00
2023-03-30T07:21:59.820Z,94842.00
2023-03-30T07:22:59.836Z,94840.00
2023-03-30T07:23:59.835Z,94842.00
2023-03-30T07:24:59.894Z,94844.00
2023-03-30T07:25:59.930Z,94840.00
2023-03-30T07:26:59.902Z,94844.00
2023-03-30T07:27:59.911Z,94844.00
2023-03-30T07:29:00.198Z,94846.00
2023-03-30T07:30:10.354Z,94848.00
2023-03-30T07:31:01.075Z,94848.00
2023-03-30T07:31:59.982Z,94852.00
2023-03-30T07:32:59.980Z,94856.00
2023-03-30T07:33:59.956Z,94854.00
2023-03-30T07:34:59.953Z,94854.00
2023-03-30T07:35:59.984Z,94854.00
2023-03-30T07:36:59.919Z,94850.00
2023-03-30T07:38:03.249Z,94844.00
2023-03-30T07:38:59.913Z,94842.00
2023-03-30T07:39:59.923Z,94836.00
2023-03-30T07:40:59.891Z,94833.00
2023-03-30T07:41:59.889Z,94834.00
2023-03-30T07:42:59.906Z,94834.00
2023-03-30T07:43:59.873Z,94833.00
2023-03-30T07:44:59.867Z,94833.00
2023-03-30T07:45:59.871Z,94833.00
2023-03-30T07:46:59.887Z,94833.00
2023-03-30T07:47:59.926Z,94833.00
2023-03-30T07:48:59.858Z,94831.00
2023-03-30T07:49:59.836Z,94825.00
2023-03-30T07:50:59.844Z,94825.00
2023-03-30T07:51:59.806Z,94821.00
2023-03-30T07:52:59.809Z,94821.00
2023-03-30T07:53:59.827Z,94817.00
2023-03-30T07:54:59.794Z,94813.00
2023-03-30T07:55:59.804Z,94813.00
2023-03-30T07:56:59.822Z,94813.00
2023-03-30T07:57:59.798Z,94807.00
2023-03-30T07:59:01.851Z,94801.00
2023-03-30T07:59:59.769Z,94797.00
2023-03-30T08:00:59.770Z,94791.00
2023-03-30T08:01:59.763Z,94785.00
2023-03-30T08:02:59.828Z,94785.00
2023-03-30T08:03:59.829Z,94783.00
2023-03-30T08:04:59.954Z,94785.00
2023-03-30T08:05:59.785Z,94783.00
2023-03-30T08:06:59.835Z,94782.00
2023-03-30T08:07:59.868Z,94780.00
2023-03-30T08:08:59.827Z,94776.00
2023-03-30T08:09:59.870Z,94770.00
2023-03-30T08:10:59.895Z,94770.00
2023-03-30T08:11:59.965Z,94766.00
2023-03-30T08:12:59.991Z,94764.00
2023-03-30T08:14:00.057Z,94764.00
2023-03-30T08:15:00.130Z,94764.00
2023-03-30T08:16:00.197Z,94768.00
2023-03-30T08:17:00.166Z,94766.00
2023-03-30T08:18:00.256Z,94772.00
2023-03-30T08:19:00.191Z,94768.00
2023-03-30T08:20:00.240Z,94764.00
2023-03-30T08:21:00.282Z,94762.00
2023-03-30T08:22:00.332Z,94758.00
2023-03-30T08:23:00.388Z,94754.00
2023-03-30T08:24:00.399Z,94752.00
2023-03-30T08:25:00.378Z,94744.00
2023-03-30T08:26:00.436Z,94750.00
2023-03-30T08:27:00.519Z,94750.00
2023-03-30T08:28:00.574Z,94750.00
2023-03-30T08:29:00.584Z,94748.00
2023-03-30T08:30:00.613Z,94742.00
2023-03-30T08:31:00.634Z,94740.00
2023-03-30T08:32:00.658Z,94744.00
2023-03-30T08:33:00.771Z,94744.00
2023-03-30T08:34:00.721Z,94752.00
2023-03-30T08:35:00.800Z,94750.00
2023-03-30T08:36:00.863Z,94756.00
2023-03-30T08:37:00.835Z,94754.00
2023-03-30T08:38:01.198Z,94756.00
2023-03-30T08:39:01.378Z,94752.00
2023-03-30T08:40:04.171Z,94746.00
2023-03-30T08:41:01.038Z,94742.00
2023-03-30T08:42:00.909Z,94732.00
2023-03-30T08:43:00.892Z,94729.00
2023-03-30T08:44:00.890Z,94725.00
2023-03-30T08:45:00.878Z,94721.00
2023-03-30T08:46:00.930Z,94721.00
2023-03-30T08:47:00.898Z,94721.00
2023-03-30T08:48:00.871Z,94717.00
2023-03-30T08:49:00.853Z,94715.00
2023-03-30T08:50:00.818Z,94713.00
2023-03-30T08:51:00.806Z,94713.00
2023-03-30T08:52:03.060Z,94715.00
2023-03-30T08:53:00.841Z,94715.00
2023-03-30T08:54:00.907Z,94715.00
2023-03-30T08:55:00.938Z,94711.00
2023-03-30T08:56:00.956Z,94713.00
2023-03-30T08:57:01.085Z,94709.00
2023-03-30T08:58:01.012Z,94707.00
2023-03-30T08:59:01.041Z,94705.00
2023-03-30T09:00:01.057Z,94705.00
2023-03-30T09:01:01.134Z,94705.00
2023-03-30T09:02:01.174Z,94703.00
2023-03-30T09:03:01.210Z,94699.00
2023-03-30T09:04:01.187Z,94701.00
2023-03-30T09:05:01.284Z,94699.00
2023-03-30T09:06:01.242Z,94699.00
2023-03-30T09:07:01.248Z,94695.00
2023-03-30T09:08:01.306Z,94695.00
2023-03-30T09:09:01.336Z,94691.00
2023-03-30T09:10:01.375Z,94689.00
2023-03-30T09:11:01.693Z,94693.00
2023-03-30T09:12:01.433Z,94695.00
2023-03-30T09:13:01.458Z,94695.00
2023-03-30T09:14:01.499Z,94699.00
2023-03-30T09:15:01.532Z,94699.00
2023-03-30T09:16:01.658Z,94697.00
2023-03-30T09:17:01.760Z,94701.00
2023-03-30T09:18:01.652Z,94699.00
2023-03-30T09:19:01.680Z,94699.00
2023-03-30T09:20:01.727Z,94691.00
2023-03-30T09:21:01.797Z,94693.00
2023-03-30T09:22:01.772Z,94687.00
2023-03-30T09:23:01.807Z,94685.00
2023-03-30T09:24:01.825Z,94687.00
2023-03-30T09:25:01.863Z,94689.00
2023-03-30T09:26:01.896Z,94689.00
2023-03-30T09:27:01.942Z,94689.00
2023-03-30T09:28:01.936Z,94689.00
2023-03-30T09:29:02.046Z,94695.00
2023-03-30T09:30:02.012Z,94697.00
2023-03-30T09:31:02.101Z,94695.00
2023-03-30T09:32:02.189Z,94691.00
2023-03-30T09:33:02.280Z,94689.00
2023-03-30T09:34:02.293Z,94685.00
2023-03-30T09:35:02.245Z,94684.00
2023-03-30T09:36:02.573Z,94685.00
2023-03-30T09:37:02.221Z,94684.00
2023-03-30T09:38:02.235Z,94682.00
2023-03-30T09:39:02.300Z,94684.00
2023-03-30T09:40:02.312Z,94680.00
2023-03-30T09:41:02.545Z,94684.00
2023-03-30T09:42:02.358Z,94685.00
2023-03-30T09:43:02.405Z,94685.00
2023-03-30T09:44:02.452Z,94684.00
2023-03-30T09:45:02.496Z,94678.00
2023-03-30T09:46:02.658Z,94676.00
2023-03-30T09:47:02.533Z,94678.00
2023-03-30T09:48:02.525Z,94672.00
2023-03-30T09:49:02.589Z,94670.00
2023-03-30T09:50:02.669Z,94666.00
2023-03-30T09:51:02.670Z,94666.00
2023-03-30T09:52:02.766Z,94676.00
2023-03-30T09:53:02.708Z,94680.00
2023-03-30T09:54:02.773Z,94678.00
2023-03-30T09:55:02.778Z,94674.00
2023-03-30T09:56:03.038Z,94668.00
2023-03-30T09:57:02.877Z,94656.00
2023-03-30T09:58:02.839Z,94644.00
2023-03-30T09:59:02.841Z,94648.00
2023-03-30T10:00:02.920Z,94646.00
2023-03-30T10:01:03.003Z,94656.00
2023-03-30T10:02:02.941Z,94652.00
2023-03-30T10:03:03.048Z,94646.00
2023-03-30T10:04:03.202Z,94642.00
2023-03-30T10:05:03.116Z,94637.00
2023-03-30T10:06:03.258Z,94637.00
2023-03-30T10:07:12.985Z,94623.00
2023-03-30T10:08:04.015Z,94631.00
2023-03-30T10:09:03.050Z,94623.00
2023-03-30T10:10:03.023Z,94619.00
2023-03-30T10:11:03.024Z,94621.00
2023-03-30T10:12:03.035Z,94617.00
2023-03-30T10:13:03.005Z,94619.00
2023-03-30T10:14:03.301Z,94613.00
2023-03-30T10:15:02.990Z,94613.00
2023-03-30T10:16:03.250Z,94611.00
2023-03-30T10:17:03.018Z,94609.00
2023-03-30T10:18:03.006Z,94605.00
2023-03-30T10:19:03.001Z,94593.00
2023-03-30T10:20:13.248Z,94595.00
2023-03-30T10:21:03.958Z,94601.00
2023-03-30T10:22:02.950Z,94605.00
2023-03-30T10:23:02.927Z,94601.00
2023-03-30T10:24:02.924Z,94601.00
2023-03-30T10:25:02.930Z,94587.00
2023-03-30T10:26:03.260Z,94582.00
2023-03-30T10:27:02.917Z,94584.00
2023-03-30T10:28:02.963Z,94587.00
2023-03-30T10:29:02.926Z,94587.00
2023-03-30T10:30:02.883Z,94585.00
2023-03-30T10:31:02.910Z,94576.00
2023-03-30T10:32:02.933Z,94566.00
2023-03-30T10:33:02.904Z,94560.00
2023-03-30T10:34:02.965Z,94570.00
2023-03-30T10:35:02.940Z,94568.00
2023-03-30T10:36:03.351Z,94564.00
2023-03-30T10:37:03.029Z,94552.00
2023-03-30T10:38:03.101Z,94540.00
2023-03-30T10:39:03.094Z,94537.00
2023-03-30T10:40:03.764Z,94537.00
2023-03-30T10:41:03.112Z,94544.00
2023-03-30T10:42:03.140Z,94550.00
2023-03-30T10:43:03.158Z,94554.00
2023-03-30T10:44:03.189Z,94550.00
2023-03-30T10:45:03.212Z,94550.00
2023-03-30T10:46:18.292Z,94550.00
2023-03-30T10:47:04.307Z,94546.00
2023-03-30T10:48:03.326Z,94544.00
2023-03-30T10:49:03.235Z,94537.00
2023-03-30T10:50:03.217Z,94531.00
2023-03-30T10:51:03.219Z,94523.00
2023-03-30T10:52:03.229Z,94511.00
2023-03-30T10:53:03.183Z,94507.00
2023-03-30T10:54:03.195Z,94513.00
2023-03-30T10:55:03.188Z,94511.00
2023-03-30T10:56:03.489Z,94511.00
2023-03-30T10:57:03.206Z,94509.00
2023-03-30T10:58:03.167Z,94511.00
2023-03-30T10:59:03.155Z,94511.00
2023-03-30T11:00:03.166Z,94507.00
2023-03-30T11:01:03.208Z,94499.00
2023-03-30T11:02:03.190Z,94493.00
2023-03-30T11:03:03.260Z,94487.00
2023-03-30T11:04:12.805Z,94487.00
2023-03-30T11:05:04.256Z,94489.00
2023-03-30T11:06:03.460Z,94478.00
2023-03-30T11:07:03.247Z,94472.00
2023-03-30T11:08:03.251Z,94468.00
2023-03-30T11:09:03.217Z,94464.00
2023-03-30T11:10:03.225Z,94470.00
2023-03-30T11:11:03.231Z,94468.00
2023-03-30T11:12:03.209Z,94472.00
2023-03-30T11:13:03.233Z,94474.00
2023-03-30T11:14:03.216Z,94468.00
2023-03-30T11:15:03.182Z,94466.00
2023-03-30T11:16:03.421Z,94460.00
2023-03-30T11:17:03.244Z,94450.00
2023-03-30T11:18:03.228Z,94450.00
2023-03-30T11:19:03.181Z,94444.00
2023-03-30T11:20:03.251Z,94454.00
2023-03-30T11:21:03.261Z,94452.00
2023-03-30T11:22:03.310Z,94450.00
2023-03-30T11:23:03.361Z,94446.00
2023-03-30T11:24:03.345Z,94438.00
2023-03-30T11:25:03.401Z,94440.00
2023-03-30T11:26:03.792Z,94436.00
2023-03-30T11:27:03.449Z,94435.00
2023-03-30T11:28:03.528Z,94438.00
2023-03-30T11:29:03.516Z,94436.00
2023-03-30T11:30:03.544Z,94436.00
2023-03-30T11:31:03.571Z,94433.00
2023-03-30T11:32:03.613Z,94433.00
2023-03-30T11:33:03.693Z,94433.00
2023-03-30T11:34:03.687Z,94431.00
2023-03-30T11:35:03.748Z,94427.00
2023-03-30T11:36:03.976Z,94427.00
2023-03-30T11:37:03.790Z,94427.00
2023-03-30T11:38:03.882Z,94423.00
2023-03-30T11:39:03.892Z,94419.00
2023-03-30T11:40:03.924Z,94417.00
2023-03-30T11:41:03.953Z,94423.00
2023-03-30T11:42:04.010Z,94415.00
2023-03-30T11:43:04.038Z,94415.00
2023-03-30T11:44:04.050Z,94409.00
2023-03-30T11:45:04.080Z,94405.00